Time;durP1;ratioP1;P1;durP2;ratioP2;P2;SDS_P1;SDS_P2;PMS_P1;PMS_P2;Temp;Humidity;BMP_temperature;BMP_pressure;BME280_temperature;BME280_humidity;BME280_pressure;Samples;Min_cycle;Max_cycle;Signal;HPM_P1;HPM_P2
2023/05/02 00:00:27;;;;;;;8.23;4.10;;;10.40;99.90;;;10.62;100.00;100789.03;5096040;28;20036;-75
2023/05/02 00:02:54;;;;;;;8.15;3.95;;;10.50;99.90;;;10.82;100.00;100796.28;5090450;28;20047;-74
2023/05/02 00:05:19;;;;;;;6.80;4.10;;;10.50;99.90;;;10.45;100.00;100786.75;5099149;28;20036;-74
2023/05/02 00:07:47;;;;;;;6.65;3.65;;;10.50;99.90;;;10.42;100.00;100792.63;5104943;28;20043;-74
2023/05/02 00:10:13;;;;;;;7.38;3.58;;;10.40;99.90;;;10.78;100.00;100788.53;5081764;28;20516;-74
2023/05/02 00:12:39;;;;;;;10.65;4.28;;;10.50;99.90;;;10.58;100.00;100794.06;5085999;28;20241;-74
2023/05/02 00:15:05;;;;;;;8.02;3.63;;;10.50;99.90;;;10.55;100.00;100796.38;5081715;28;20031;-74
2023/05/02 00:17:31;;;;;;;8.25;3.67;;;10.50;99.90;;;10.56;100.00;100798.03;5086221;28;20036;-74
2023/05/02 00:19:57;;;;;;;8.50;4.00;;;10.60;99.90;;;10.52;100.00;100788.63;5060640;28;20106;-74
2023/05/02 00:22:23;;;;;;;7.30;3.40;;;10.60;99.90;;;10.57;100.00;100794.25;5083318;28;20054;-74
2023/05/02 00:24:50;;;;;;;7.28;3.85;;;10.60;99.90;;;10.57;100.00;100791.53;5082721;28;20112;-74
2023/05/02 00:27:16;;;;;;;10.27;4.03;;;10.60;99.90;;;10.58;100.00;100795.94;5084910;28;20036;-75
2023/05/02 00:29:42;;;;;;;8.32;4.07;;;10.60;99.90;;;11.06;100.00;100792.03;5090123;28;20040;-75
2023/05/02 00:32:07;;;;;;;7.68;4.07;;;10.60;99.90;;;10.60;100.00;100789.22;5083749;28;20548;-74
2023/05/02 00:34:33;;;;;;;6.68;4.10;;;10.60;99.90;;;10.59;100.00;100792.16;5054995;28;20396;-75
2023/05/02 00:36:59;;;;;;;8.27;4.13;;;10.60;99.90;;;10.60;100.00;100794.69;5037823;28;20037;-75
2023/05/02 00:39:25;;;;;;;9.45;4.57;;;10.60;99.90;;;10.65;100.00;100792.16;5054557;28;20028;-75
2023/05/02 00:42:00;;;;;;;8.93;3.97;;;10.60;99.90;;;10.67;100.00;100791.09;5077329;28;20033;-75
2023/05/02 00:44:26;;;;;;;8.20;4.20;;;10.60;99.90;;;10.68;100.00;100793.63;5054849;28;20082;-74
2023/05/02 00:46:53;;;;;;;10.48;4.38;;;10.60;99.90;;;10.69;100.00;100794.44;5055778;28;20036;-75
2023/05/02 00:49:19;;;;;;;7.22;4.65;;;10.60;99.90;;;10.69;100.00;100803.47;5084831;28;20437;-74
2023/05/02 00:51:45;;;;;;;9.68;4.63;;;10.60;99.90;;;10.68;100.00;100793.63;5056589;28;20036;-74
2023/05/02 00:54:14;;;;;;;7.65;4.32;;;10.60;99.90;;;10.65;100.00;100797.59;5085496;28;20499;-75
2023/05/02 00:56:41;;;;;;;10.18;4.57;;;10.60;99.90;;;10.65;100.00;100804.97;5059396;28;20094;-75
2023/05/02 00:59:09;;;;;;;8.13;4.55;;;10.60;99.90;;;10.71;100.00;100806.84;5060243;28;20029;-74
2023/05/02 01:01:54;;;;;;;9.70;4.68;;;10.70;99.90;;;10.62;100.00;100794.47;5089658;28;20032;-74
2023/05/02 01:04:58;;;;;;;8.45;4.70;;;10.60;99.90;;;10.79;100.00;100795.69;5058133;28;20556;-74
2023/05/02 01:08:09;;;;;;;10.52;4.68;;;10.70;99.90;;;10.76;100.00;100804.28;5090650;28;20031;-74
2023/05/02 01:11:05;;;;;;;7.88;4.70;;;10.70;99.90;;;10.68;100.00;100799.06;4991517;28;20046;-74
2023/05/02 01:13:35;;;;;;;9.27;4.60;;;10.70;99.90;;;10.72;100.00;100799.47;4972684;28;20050;-74
2023/05/02 01:16:04;;;;;;;8.13;4.63;;;10.70;99.90;;;10.70;100.00;100801.56;5051686;28;20044;-76
2023/05/02 01:18:37;;;;;;;8.63;4.50;;;10.70;99.90;;;10.69;100.00;100802.63;5092514;28;20047;-73
2023/05/02 01:21:08;;;;;;;8.02;4.18;;;10.70;99.90;;;10.60;100.00;100800.13;5060693;28;20119;-74
2023/05/02 01:24:05;;;;;;;9.55;4.90;;;10.70;99.90;;;10.67;100.00;100816.50;5079126;28;20395;-74
2023/05/02 01:27:14;;;;;;;9.15;4.80;;;10.60;99.90;;;10.64;100.00;100811.47;5077603;28;20454;-74
2023/05/02 01:29:43;;;;;;;11.18;5.13;;;10.60;99.90;;;10.56;100.00;100814.41;5057376;28;20571;-74
2023/05/02 01:32:13;;;;;;;10.68;5.10;;;10.60;99.90;;;10.49;100.00;100804.34;5086670;28;20032;-74
2023/05/02 01:34:43;;;;;;;7.20;4.93;;;10.60;99.90;;;10.58;100.00;100817.75;5061153;28;20491;-74
2023/05/02 01:37:12;;;;;;;8.63;5.15;;;10.60;99.90;;;10.52;100.00;100814.00;5040239;28;20036;-74
2023/05/02 01:39:41;;;;;;;8.55;4.97;;;10.60;99.90;;;10.55;100.00;100815.47;5064119;28;20037;-74
2023/05/02 01:42:08;;;;;;;10.45;5.50;;;10.60;99.90;;;10.55;100.00;100812.72;5068084;28;20047;-74
2023/05/02 01:44:36;;;;;;;9.70;5.68;;;10.60;99.90;;;10.52;100.00;100824.94;5060143;28;20047;-74
2023/05/02 01:47:04;;;;;;;;;;;10.50;99.90;;;10.46;100.00;100821.16;5084759;28;20028;-74
2023/05/02 01:49:34;;;;;;;8.63;5.15;;;10.50;99.90;;;10.53;100.00;100831.22;5092234;28;20287;-74
2023/05/02 01:52:07;;;;;;;7.93;5.00;;;10.50;99.90;;;10.49;100.00;100834.38;5066824;28;20115;-74
2023/05/02 01:54:36;;;;;;;12.65;5.85;;;10.60;99.90;;;10.50;100.00;100835.22;5057811;28;20101;-74
2023/05/02 01:57:06;;;;;;;11.82;5.68;;;10.50;99.90;;;10.55;100.00;100837.28;5062406;28;20384;-73
2023/05/02 01:59:34;;;;;;;9.68;5.57;;;10.60;99.90;;;10.52;100.00;100834.97;5056820;28;20043;-75
2023/05/02 02:02:05;;;;;;;;;;;10.60;99.90;;;10.49;100.00;100841.72;5085611;28;20036;-74
2023/05/02 02:04:36;;;;;;;9.30;5.43;;;10.60;99.90;;;10.53;100.00;100844.84;5091958;28;19916;-75
2023/05/02 02:07:07;;;;;;;11.13;5.40;;;10.50;99.90;;;10.52;100.00;100854.09;5091532;28;20487;-75
2023/05/02 02:09:33;;;;;;;11.98;7.00;;;10.60;99.90;;;10.69;100.00;100840.81;5059229;28;20635;-75
2023/05/02 02:12:04;;;;;;;;;;;10.80;99.90;;;10.86;100.00;100841.22;5049861;28;20097;-74
2023/05/02 02:14:42;;;;;;;13.75;8.02;;;11.10;99.90;;;10.97;100.00;100837.84;5062181;28;19965;-75
2023/05/02 02:17:27;;;;;;;15.52;9.15;;;11.20;99.90;;;11.02;100.00;100839.94;5067211;28;20028;-75
2023/05/02 02:19:58;;;;;;;14.23;8.25;;;11.20;99.90;;;11.10;100.00;100836.94;5086801;28;20038;-74
2023/05/02 02:22:27;;;;;;;17.55;9.45;;;11.30;99.90;;;11.14;100.00;100838.19;5056390;28;20036;-75
2023/05/02 02:24:54;;;;;;;17.40;10.50;;;11.40;99.90;;;11.05;100.00;100840.31;5056576;28;20068;-75
2023/05/02 02:27:20;;;;;;;19.75;12.13;;;11.40;99.90;;;11.07;100.00;100843.66;5088044;28;20048;-74
2023/05/02 02:29:45;;;;;;;18.77;11.63;;;11.50;99.90;;;11.08;100.00;100844.53;5063772;28;20052;-75
2023/05/02 02:32:11;;;;;;;17.25;11.07;;;11.40;99.90;;;11.21;100.00;100849.91;5080013;28;20045;-74
2023/05/02 02:34:37;;;;;;;18.42;11.82;;;11.50;99.90;;;11.09;100.00;100838.00;5076043;28;20032;-75
2023/05/02 02:37:17;;;;;;;20.17;12.75;;;11.50;99.90;;;11.10;100.00;100853.34;5088725;28;20483;-75
2023/05/02 02:40:08;;;;;;;19.40;12.73;;;11.40;99.90;;;11.03;100.00;100856.06;5070111;28;20039;-76
2023/05/02 02:43:07;;;;;;;19.08;12.40;;;11.50;99.90;;;11.11;100.00;100868.66;5065515;28;20032;-76
2023/05/02 02:46:03;;;;;;;20.42;12.48;;;11.40;99.90;;;11.12;100.00;100853.09;5057060;28;20119;-77
2023/05/02 02:48:34;;;;;;;21.73;14.07;;;11.40;99.90;;;11.08;100.00;100861.72;5052815;28;20471;-74
2023/05/02 02:51:38;;;;;;;19.30;13.10;;;11.40;99.90;;;11.13;100.00;100862.97;5084185;28;20093;-74
2023/05/02 02:54:26;;;;;;;20.05;12.57;;;11.40;99.90;;;11.03;100.00;100869.72;5047413;28;20072;-74
2023/05/02 02:57:03;;;;;;;24.35;13.35;;;11.30;99.90;;;11.08;100.00;100874.56;5056272;28;20567;-74
2023/05/02 02:59:36;;;;;;;25.45;14.38;;;11.20;99.90;;;10.92;100.00;100882.13;5087019;28;20119;-74
2023/05/02 03:02:14;;;;;;;26.95;16.00;;;11.20;99.90;;;10.98;100.00;100891.38;5057428;28;20071;-74
2023/05/02 03:04:45;;;;;;;26.77;16.27;;;11.20;99.90;;;10.90;100.00;100886.97;5041214;28;20048;-74
2023/05/02 03:07:12;;;;;;;27.80;17.95;;;11.20;99.90;;;10.95;100.00;100900.00;5091284;28;20024;-77
2023/05/02 03:09:47;;;;;;;25.45;17.25;;;11.30;99.90;;;10.96;100.00;100898.94;5089533;28;20036;-75
2023/05/02 03:12:18;;;;;;;24.70;14.75;;;11.30;99.90;;;10.91;100.00;100904.22;5057499;28;20036;-75
2023/05/02 03:14:44;;;;;;;26.25;16.55;;;11.30;99.90;;;10.96;100.00;100904.41;5063116;28;20122;-75
2023/05/02 03:17:10;;;;;;;28.40;17.60;;;11.40;99.90;;;10.97;100.00;100892.44;5056419;28;20512;-74
2023/05/02 03:19:37;;;;;;;29.35;17.73;;;11.40;99.90;;;11.03;100.00;100913.41;5066665;28;20055;-74
2023/05/02 03:22:04;;;;;;;29.63;18.77;;;11.40;99.90;;;10.92;100.00;100908.63;5055246;28;20046;-74
2023/05/02 03:24:33;;;;;;;29.88;17.75;;;11.40;99.90;;;11.03;100.00;100912.59;5071564;28;20140;-73
2023/05/02 03:26:59;;;;;;;30.27;18.15;;;11.30;99.90;;;10.83;100.00;100931.69;5058136;28;20028;-74
2023/05/02 03:29:30;;;;;;;29.35;17.75;;;11.30;99.90;;;10.78;100.00;100911.34;5054821;28;20574;-74
2023/05/02 03:31:55;;;;;;;28.08;17.02;;;11.30;99.90;;;10.89;100.00;100928.97;5065499;28;20483;-73
2023/05/02 03:34:22;;;;;;;26.90;16.70;;;11.30;99.90;;;10.82;100.00;100925.41;5081197;28;20028;-74
2023/05/02 03:36:49;;;;;;;24.35;16.20;;;11.30;99.90;;;10.83;100.00;100923.50;5055822;28;20037;-74
2023/05/02 03:39:16;;;;;;;26.40;16.00;;;11.20;99.90;;;10.81;100.00;100937.38;5061354;28;20504;-75
2023/05/02 03:41:43;;;;;;;25.77;14.57;;;11.20;99.90;;;10.72;100.00;100914.94;5061930;28;20392;-75
2023/05/02 03:44:13;;;;;;;25.48;14.63;;;11.20;99.90;;;10.87;100.00;100932.94;5060929;28;20743;-74
2023/05/02 03:46:39;;;;;;;25.88;15.88;;;11.20;99.90;;;10.81;100.00;100917.44;5053967;28;20033;-74
2023/05/02 03:49:09;;;;;;;27.88;14.98;;;11.20;99.90;;;10.88;100.00;100931.94;5064976;28;20119;-74
2023/05/02 03:51:35;;;;;;;25.58;15.30;;;11.10;99.90;;;10.93;100.00;100935.69;5072725;28;20364;-73
2023/05/02 03:54:04;;;;;;;25.35;14.95;;;11.20;99.90;;;10.94;100.00;100936.53;5070393;28;20383;-74
2023/05/02 03:56:30;;;;;;;29.02;16.20;;;11.10;99.90;;;10.69;100.00;100929.00;5068525;28;20036;-74
2023/05/02 03:59:11;;;;;;;24.52;15.10;;;11.10;99.90;;;10.81;100.00;100939.25;5077708;28;20033;-73
2023/05/02 04:01:37;;;;;;;24.30;15.27;;;11.10;99.90;;;10.75;100.00;100940.97;5067216;28;20059;-74
2023/05/02 04:04:04;;;;;;;27.03;16.10;;;11.20;99.90;;;10.97;100.00;100946.16;5055185;28;20515;-73
2023/05/02 04:06:35;;;;;;;23.60;14.85;;;11.20;99.90;;;10.93;100.00;100951.25;5067945;28;20024;-74
2023/05/02 04:09:04;;;;;;;26.05;14.88;;;11.20;99.90;;;10.86;100.00;100942.19;5056907;28;20039;-74
2023/05/02 04:11:38;;;;;;;22.00;13.70;;;11.20;99.90;;;10.83;100.00;100957.13;5058754;28;20032;-74
2023/05/02 04:14:05;;;;;;;23.70;14.23;;;11.30;99.90;;;10.88;100.00;100964.69;5068994;28;20028;-74
2023/05/02 04:16:31;;;;;;;22.00;13.80;;;11.30;99.90;;;10.86;100.00;100972.22;5054621;28;20297;-74
2023/05/02 04:18:58;;;;;;;22.10;14.45;;;11.30;99.90;;;10.98;100.00;100965.09;5083333;28;20048;-74
2023/05/02 04:21:24;;;;;;;23.38;13.98;;;11.30;99.90;;;10.90;100.00;100978.97;5053899;28;20035;-74
2023/05/02 04:23:51;;;;;;;24.50;14.35;;;11.30;99.90;;;10.99;100.00;100963.19;5071123;28;20047;-75
2023/05/02 04:26:17;;;;;;;24.17;14.47;;;11.30;99.90;;;10.89;100.00;100983.56;5071962;28;20032;-74
2023/05/02 04:28:53;;;;;;;27.25;15.65;;;11.30;99.90;;;10.98;100.00;100986.06;5065209;28;20125;-74
2023/05/02 04:31:18;;;;;;;24.80;14.27;;;11.30;99.90;;;10.87;100.00;100984.81;5073005;28;20032;-74
2023/05/02 04:33:47;;;;;;;27.67;15.93;;;11.30;99.90;;;10.84;100.00;100996.16;5059167;28;20478;-74
2023/05/02 04:36:15;;;;;;;33.63;17.52;;;11.30;99.90;;;10.69;100.00;101004.53;5085225;28;20040;-74
2023/05/02 04:38:43;;;;;;;33.58;19.13;;;11.10;99.90;;;10.38;100.00;101015.00;5060921;28;20040;-75
2023/05/02 04:41:10;;;;;;;38.45;20.23;;;10.90;99.90;;;10.27;100.00;101032.78;5058428;28;20055;-75
2023/05/02 04:43:41;;;;;;;39.05;21.60;;;10.70;99.90;;;10.04;100.00;101020.34;5071024;28;20097;-75
2023/05/02 04:46:07;;;;;;;40.13;21.48;;;10.60;99.90;;;9.96;100.00;101006.91;5061793;28;20114;-74
2023/05/02 04:48:40;;;;;;;43.53;22.75;;;10.50;99.90;;;9.99;100.00;101032.88;5063632;28;20408;-75
2023/05/02 04:51:08;;;;;;;43.42;23.05;;;10.40;99.90;;;9.98;100.00;101020.31;5093111;28;20051;-74
2023/05/02 04:53:34;;;;;;;46.80;23.73;;;10.40;99.90;;;9.98;100.00;101042.09;5060184;28;20032;-74
2023/05/02 04:56:00;;;;;;;50.55;25.10;;;10.40;99.90;;;10.05;100.00;101038.38;5058522;28;20514;-74
2023/05/02 04:58:26;;;;;;;51.47;25.08;;;10.30;99.90;;;9.93;100.00;101038.13;5064034;28;20063;-74
2023/05/02 05:00:58;;;;;;;51.47;27.05;;;10.30;99.90;;;10.17;100.00;101046.81;5061211;28;20033;-74
2023/05/02 05:03:24;;;;;;;33.75;16.35;;;10.40;99.90;;;10.01;100.00;101055.31;5084767;28;20041;-75
2023/05/02 05:05:53;;;;;;;47.00;24.25;;;10.40;99.90;;;10.06;100.00;101066.47;5087099;28;20492;-74
2023/05/02 05:08:21;;;;;;;36.17;20.73;;;10.40;99.90;;;9.94;100.00;101063.47;5057992;28;20499;-74
2023/05/02 05:10:47;;;;;;;49.80;23.15;;;10.30;99.90;;;10.06;100.00;101072.75;5087868;28;20044;-74
2023/05/02 05:13:13;;;;;;;40.40;21.60;;;10.30;99.90;;;9.85;100.00;101057.38;5085885;28;20035;-74
2023/05/02 05:15:40;;;;;;;37.45;19.20;;;10.30;99.90;;;9.91;100.00;101080.22;5058830;28;20040;-74
2023/05/02 05:18:07;;;;;;;39.72;18.85;;;10.20;99.90;;;10.33;100.00;101096.56;5055930;28;20492;-73
2023/05/02 05:20:33;;;;;;;46.78;21.48;;;10.30;99.90;;;9.96;100.00;101091.41;5084767;28;20041;-73
2023/05/02 05:23:00;;;;;;;40.93;19.83;;;10.30;99.90;;;9.99;100.00;101092.84;5057492;28;20036;-73
2023/05/02 05:25:27;;;;;;;31.08;17.27;;;10.30;99.90;;;10.24;100.00;101100.50;5042583;28;20285;-73
2023/05/02 05:27:55;;;;;;;32.37;17.53;;;10.30;99.90;;;9.89;100.00;101107.69;5070502;28;20039;-74
2023/05/02 05:30:21;;;;;;;28.65;14.02;;;10.30;99.90;;;9.79;100.00;101124.41;5069798;28;20032;-73
2023/05/02 05:32:47;;;;;;;16.40;8.70;;;10.30;99.90;;;9.50;100.00;101131.75;5093034;28;20384;-74
2023/05/02 05:35:13;;;;;;;7.25;4.22;;;10.10;99.90;;;9.13;100.00;101139.19;5079770;28;20163;-74
2023/05/02 05:37:39;;;;;;;10.48;5.05;;;9.80;99.90;;;9.18;100.00;101149.50;5078493;28;20527;-75
2023/05/02 05:40:10;;;;;;;8.27;4.18;;;9.60;99.90;;;8.97;100.00;101155.78;5084437;28;20039;-75
2023/05/02 05:42:37;;;;;;;7.93;4.22;;;9.50;99.90;;;8.89;100.00;101148.59;5064178;28;20044;-74
2023/05/02 05:45:09;;;;;;;7.60;4.20;;;9.40;99.90;;;8.92;100.00;101164.53;5073373;28;20151;-74
2023/05/02 05:47:35;;;;;;;8.73;3.75;;;9.40;99.90;;;8.87;100.00;101170.53;5062754;28;20445;-75
2023/05/02 05:50:01;;;;;;;8.60;3.97;;;9.40;99.90;;;8.92;100.00;101180.84;5093095;28;20028;-75
2023/05/02 05:52:29;;;;;;;8.68;3.50;;;9.40;99.90;;;8.90;100.00;101183.78;5061634;28;20032;-75
2023/05/02 05:54:57;;;;;;;9.93;4.10;;;9.30;99.90;;;8.82;100.00;101194.75;5058454;28;20060;-75
2023/05/02 05:57:25;;;;;;;;;;;9.30;99.90;;;8.73;100.00;101201.34;5074729;28;20024;-75
2023/05/02 05:59:52;;;;;;;4.18;2.45;;;9.20;99.90;;;8.46;100.00;101211.88;5088298;28;19916;-75
2023/05/02 06:02:18;;;;;;;6.85;3.30;;;9.10;99.90;;;8.40;100.00;101202.59;5062126;28;20055;-74
2023/05/02 06:04:45;;;;;;;9.38;2.72;;;9.00;99.90;;;8.27;100.00;101208.69;5064871;28;20116;-76
2023/05/02 06:07:12;;;;;;;8.50;3.35;;;8.80;99.90;;;8.23;100.00;101217.44;5060956;28;20067;-75
2023/05/02 06:09:38;;;;;;;9.68;3.45;;;8.80;99.90;;;8.25;100.00;101235.22;5064013;28;20036;-75
2023/05/02 06:12:03;;;;;;;7.57;2.70;;;8.80;99.90;;;8.29;100.00;101222.94;5059288;28;20032;-74
2023/05/02 06:14:31;;;;;;;8.45;3.50;;;8.80;99.90;;;8.29;100.00;101241.13;5057045;28;20063;-74
2023/05/02 06:17:00;;;;;;;8.23;3.33;;;8.80;99.90;;;8.33;100.00;101229.69;5064807;28;20067;-75
2023/05/02 06:19:27;;;;;;;11.40;3.03;;;8.90;99.90;;;8.27;100.00;101240.47;5082957;28;20033;-75
2023/05/02 06:21:52;;;;;;;11.93;3.75;;;8.80;99.90;;;8.40;100.00;101247.97;5091875;28;20487;-74
2023/05/02 06:24:18;;;;;;;10.95;3.50;;;8.80;99.90;;;8.42;100.00;101256.78;5060375;28;20040;-75
2023/05/02 06:26:45;;;;;;;9.82;3.72;;;8.90;99.90;;;8.53;100.00;101250.91;5086726;28;20028;-76
2023/05/02 06:29:10;;;;;;;13.13;3.80;;;9.00;99.90;;;8.65;100.00;101267.59;5090751;28;20058;-76
2023/05/02 06:31:36;;;;;;;12.50;4.00;;;9.10;99.90;;;8.55;100.00;101257.00;5086683;28;20387;-76
2023/05/02 06:34:02;;;;;;;12.65;4.50;;;9.10;99.90;;;8.95;100.00;101267.53;5087880;28;20044;-76
2023/05/02 06:36:28;;;;;;;9.07;3.03;;;9.20;99.90;;;8.77;100.00;101254.34;5092144;28;20036;-76
2023/05/02 06:38:54;;;;;;;12.68;3.25;;;9.40;99.90;;;8.72;100.00;101273.94;5092924;28;20043;-76
2023/05/02 06:41:20;;;;;;;13.95;3.20;;;9.20;99.90;;;8.75;100.00;101273.59;5095213;28;20123;-77
2023/05/02 06:43:46;;;;;;;7.85;3.25;;;9.20;99.90;;;8.63;100.00;101270.50;5094072;28;20051;-76
2023/05/02 06:46:12;;;;;;;9.35;2.05;;;9.20;99.90;;;8.59;100.00;101281.94;5091754;28;20024;-76
2023/05/02 06:48:37;;;;;;;13.38;3.38;;;9.20;99.90;;;8.47;100.00;101270.66;5092169;28;20377;-77
2023/05/02 06:51:03;;;;;;;16.10;3.60;;;9.10;99.90;;;8.55;100.00;101259.72;5080432;28;20035;-77
2023/05/02 06:53:32;;;;;;;9.00;2.90;;;9.10;99.90;;;8.57;100.00;101275.84;5078778;28;20042;-78
2023/05/02 06:55:58;;;;;;;14.50;3.55;;;9.20;99.90;;;8.82;100.00;101270.94;5082386;28;20040;-77
2023/05/02 06:58:23;;;;;;;11.65;3.40;;;9.30;99.90;;;8.78;100.00;101275.94;5084864;28;20062;-77
2023/05/02 07:00:49;;;;;;;10.50;3.28;;;9.40;99.90;;;9.00;100.00;101267.81;5085843;28;20028;-74
2023/05/02 07:03:15;;;;;;;13.65;3.67;;;9.50;99.90;;;8.95;100.00;101289.31;5103705;28;20047;-78
2023/05/02 07:05:41;;;;;;;13.85;4.07;;;9.60;99.90;;;8.73;100.00;101285.69;5095373;28;20036;-75
2023/05/02 07:08:07;;;;;;;11.82;3.17;;;9.40;99.90;;;8.86;100.00;101291.28;5088747;28;20040;-76
2023/05/02 07:10:33;;;;;;;13.93;4.05;;;9.40;99.90;;;8.87;100.00;101278.53;5079030;28;20162;-76
2023/05/02 07:12:59;;;;;;;12.25;3.42;;;9.50;99.90;;;8.93;100.00;101288.66;5083271;28;20040;-76
2023/05/02 07:15:24;;;;;;;17.30;3.17;;;9.50;99.90;;;8.82;100.00;101278.28;5083605;28;20043;-76
2023/05/02 07:17:50;;;;;;;7.88;2.25;;;9.40;99.90;;;9.06;100.00;101301.59;5089720;28;20602;-76
2023/05/02 07:20:16;;;;;;;13.15;4.05;;;9.50;99.90;;;9.01;100.00;101283.09;5091628;28;20037;-77
2023/05/02 07:22:42;;;;;;;9.30;2.85;;;9.50;99.90;;;8.89;98.23;101284.63;5058389;28;20044;-75
2023/05/02 07:25:08;;;;;;;10.07;2.78;;;9.50;99.90;;;9.00;98.66;101296.91;5088367;28;20156;-76
2023/05/02 07:27:34;;;;;;;10.02;3.20;;;9.60;99.90;;;9.41;94.97;101273.72;5055222;28;20496;-75
2023/05/02 07:30:01;;;;;;;14.27;3.50;;;9.70;99.90;;;9.17;94.96;101292.09;5082138;28;20045;-76
2023/05/02 07:32:27;;;;;;;14.70;3.60;;;9.80;99.90;;;9.38;95.21;101288.53;5091422;28;20084;-76
2023/05/02 07:34:53;;;;;;;17.73;4.05;;;9.80;99.90;;;9.41;93.85;101292.78;5091496;28;20148;-76
2023/05/02 07:37:20;;;;;;;11.30;3.05;;;9.90;99.90;;;9.41;93.43;101309.13;5090521;28;20536;-76
2023/05/02 07:39:45;;;;;;;14.73;3.30;;;10.00;99.90;;;9.42;92.13;101303.50;5088115;28;20089;-75
2023/05/02 07:42:11;;;;;;;13.27;3.88;;;10.10;99.90;;;8.94;91.45;101306.69;5084148;28;20044;-78
2023/05/02 07:44:37;;;;;;;10.63;2.80;;;9.80;99.90;;;9.01;92.21;101312.22;5080431;28;20073;-76
2023/05/02 07:47:03;;;;;;;9.30;3.00;;;9.70;99.90;;;9.50;90.21;101310.66;5091187;28;20035;-77
2023/05/02 07:49:29;;;;;;;15.02;5.35;;;9.90;99.90;;;9.40;90.76;101305.53;5085300;28;20043;-77
2023/05/02 07:51:56;;;;;;;49.63;26.15;;;10.00;99.90;;;9.78;91.91;101328.97;5081146;28;20040;-76
2023/05/02 07:54:22;;;;;;;22.02;9.45;;;10.20;99.90;;;9.54;89.73;101322.03;5081061;28;20387;-77
2023/05/02 07:56:47;;;;;;;16.17;5.53;;;10.20;99.90;;;9.60;90.31;101341.19;5088800;28;20123;-77
2023/05/02 07:59:13;;;;;;;14.98;4.00;;;10.30;99.90;;;10.06;87.85;101322.72;5054441;28;20040;-75
2023/05/02 08:01:43;;;;;;;20.52;8.38;;;10.20;99.90;;;9.53;88.52;101334.78;5075872;28;20044;-76
2023/05/02 08:04:10;;;;;;;28.38;15.90;;;10.10;99.90;;;9.36;89.90;101334.19;5083746;28;20040;-78
2023/05/02 08:06:36;;;;;;;32.22;19.80;;;10.00;99.90;;;9.28;91.21;101329.72;5084480;28;20046;-77
2023/05/02 08:09:02;;;;;;;19.75;9.40;;;9.90;99.90;;;9.42;92.31;101346.19;5090490;28;20483;-77
2023/05/02 08:11:28;;;;;;;12.25;3.63;;;9.90;99.90;;;9.15;91.38;101360.34;5085534;28;20050;-76
2023/05/02 08:13:54;;;;;;;15.40;2.95;;;9.80;99.90;;;9.11;89.58;101350.03;5087657;28;20067;-76
2023/05/02 08:16:20;;;;;;;14.43;3.35;;;9.70;99.90;;;9.42;89.93;101348.94;5062705;28;20040;-75
2023/05/02 08:18:46;;;;;;;13.52;3.42;;;9.90;99.90;;;9.85;88.01;101359.00;5085731;28;20035;-76
2023/05/02 08:21:12;;;;;;;10.35;2.58;;;10.10;99.90;;;9.42;83.78;101359.81;5082016;28;20085;-78
2023/05/02 08:23:40;;;;;;;12.10;3.20;;;10.00;99.90;;;9.44;82.74;101372.22;5086394;28;20040;-77
2023/05/02 08:26:05;;;;;;;12.85;2.58;;;10.00;99.90;;;9.39;81.25;101355.59;5089631;28;20067;-76
2023/05/02 08:28:33;;;;;;;12.02;2.70;;;10.10;99.90;;;9.52;81.62;101364.97;5071612;28;20055;-77
2023/05/02 08:30:58;;;;;;;10.00;2.13;;;10.10;99.90;;;9.35;80.18;101374.22;5090430;28;20028;-76
2023/05/02 08:33:25;;;;;;;12.95;3.15;;;10.00;99.90;;;9.27;81.18;101360.69;5090715;28;20024;-77
2023/05/02 08:35:50;;;;;;;10.43;2.40;;;10.00;99.90;;;9.24;79.82;101363.78;5062377;28;20032;-77
2023/05/02 08:38:16;;;;;;;13.10;2.83;;;10.10;99.90;;;9.35;80.02;101367.91;5084942;28;20040;-77
2023/05/02 08:40:42;;;;;;;11.68;2.67;;;10.00;99.90;;;9.34;79.45;101380.69;5065429;28;20039;-76
2023/05/02 08:43:10;;;;;;;15.13;3.08;;;10.00;99.90;;;9.73;79.56;101386.78;5078110;28;20415;-78
2023/05/02 08:45:41;;;;;;;;;;;10.20;99.90;;;9.76;78.89;101385.53;5079804;28;20033;-76
2023/05/02 08:48:12;;;;;;;9.23;2.40;;;10.30;99.90;;;9.46;78.12;101394.66;5077285;28;20287;-77
2023/05/02 08:50:47;;;;;;;11.48;2.75;;;10.10;99.90;;;9.58;77.64;101399.59;5066249;28;20041;-76
2023/05/02 08:53:13;;;;;;;6.63;1.95;;;10.20;99.90;;;9.22;77.22;101395.81;5088919;28;20119;-77
2023/05/02 08:55:41;;;;;;;6.93;2.28;;;10.00;99.90;;;9.16;76.76;101397.44;5054091;28;20128;-77
2023/05/02 08:58:09;;;;;;;6.35;2.15;;;9.90;99.90;;;9.41;76.59;101418.06;5058687;28;20430;-77
2023/05/02 09:00:39;;;;;;;5.97;1.85;;;10.00;99.90;;;9.27;76.55;101411.59;5081875;28;20047;-77
2023/05/02 09:03:30;;;;;;;9.45;2.83;;;10.00;99.90;;;9.26;76.51;101426.25;5075770;28;20494;-76
2023/05/02 09:06:05;;;;;;;8.18;2.63;;;9.90;99.90;;;9.27;76.92;101430.66;5083790;28;20043;-76
2023/05/02 09:08:33;;;;;;;7.55;1.85;;;9.90;99.90;;;9.04;76.63;101440.63;5057877;28;20041;-77
2023/05/02 09:11:00;;;;;;;7.07;2.03;;;9.80;99.90;;;9.02;76.59;101445.41;5086817;28;20028;-78
2023/05/02 09:13:34;;;;;;;13.55;3.10;;;9.80;99.90;;;9.24;77.25;101439.19;5088942;28;20067;-77
2023/05/02 09:16:06;;;;;;;7.93;2.22;;;9.80;99.90;;;9.10;76.73;101455.34;5056576;28;20029;-77
2023/05/02 09:18:44;;;;;;;9.73;2.97;;;9.80;99.90;;;9.11;75.39;101450.75;5061006;28;20055;-75
2023/05/02 09:21:19;;;;;;;9.05;2.85;;;9.80;99.90;;;8.93;74.68;101451.94;5057164;28;20039;-76
2023/05/02 09:23:51;;;;;;;9.48;2.67;;;9.70;99.90;;;9.09;74.68;101461.81;5092653;28;20032;-77
2023/05/02 09:26:20;;;;;;;9.70;2.95;;;9.70;99.90;;;9.05;74.10;101461.34;5097234;28;20485;-77
2023/05/02 09:28:48;;;;;;;7.38;2.38;;;9.80;99.90;;;9.11;74.17;101465.19;5087884;28;20043;-76
2023/05/02 09:31:17;;;;;;;12.13;2.75;;;9.80;99.90;;;9.23;74.15;101475.63;5064084;28;20032;-78
2023/05/02 09:33:43;;;;;;;10.00;2.70;;;9.90;99.90;;;9.21;73.03;101478.53;5064155;28;20771;-76
2023/05/02 09:36:17;;;;;;;8.15;2.35;;;10.00;99.90;;;9.00;72.00;101471.09;5065464;28;20048;-76
2023/05/02 09:38:45;;;;;;;7.43;2.50;;;9.90;99.90;;;8.98;72.75;101490.34;5095045;28;20067;-77
2023/05/02 09:41:11;;;;;;;7.32;2.50;;;9.80;99.90;;;8.95;73.31;101484.44;5076679;28;20036;-77
2023/05/02 09:43:38;;;;;;;7.75;1.92;;;9.70;99.90;;;9.10;73.00;101482.56;5092443;28;20124;-77
2023/05/02 09:46:08;;;;;;;9.48;2.30;;;9.80;99.90;;;8.87;72.25;101486.19;5093859;28;20058;-78
2023/05/02 09:48:58;;;;;;;9.02;2.25;;;9.60;99.90;;;9.07;71.27;101482.94;5082181;28;20055;-78
2023/05/02 09:51:24;;;;;;;9.80;2.50;;;9.70;99.90;;;8.98;70.25;101484.06;5079921;28;20048;-78
2023/05/02 09:53:51;;;;;;;10.07;2.47;;;9.80;99.90;;;9.50;68.55;101488.56;5102988;28;20036;-77
2023/05/02 09:56:17;;;;;;;11.20;2.40;;;10.10;99.90;;;9.31;66.45;101481.84;5110434;28;20092;-76
2023/05/02 09:58:44;;;;;;;8.10;2.55;;;10.20;99.90;;;9.41;66.01;101483.41;5090470;28;20036;-76
2023/05/02 10:01:18;;;;;;;5.68;1.92;;;10.20;99.90;;;9.80;65.15;101474.03;5097962;28;20051;-77
2023/05/02 10:03:48;;;;;;;8.25;2.10;;;10.40;99.90;;;10.10;63.81;101470.41;5068471;28;20064;-76
2023/05/02 10:06:16;;;;;;;9.45;2.42;;;10.60;99.90;;;10.06;63.60;101469.94;5068009;28;20582;-75
2023/05/02 10:08:44;;;;;;;9.98;2.10;;;10.60;99.90;;;9.69;62.96;101471.81;5085131;28;20036;-77
2023/05/02 10:11:12;;;;;;;5.80;1.95;;;10.60;99.90;;;9.83;63.19;101481.88;5082586;28;20046;-77
2023/05/02 10:13:41;;;;;;;8.55;2.22;;;10.60;99.90;;;9.62;63.80;101494.38;5089370;28;20047;-78
2023/05/02 10:16:11;;;;;;;8.35;2.40;;;10.40;99.90;;;10.06;62.86;101491.75;5084486;28;20436;-77